Colchester, Washington
Current Conditions -  °F | °C
As of 2:55 AM on Monday 20 Oct 2014 (Local Time) from KPWT Reporting Station
Overcast Overcast  
Wind Chill: 57°   Ceiling: 500
Heat Index: 57°   Visibility: 8mi
Dew Point: 55°   Wind: 3mph
Humidity: 94%   Direction: 170°S
Pressure: 29.73"   Gusts: NA
Location:  47.5378°N, 122.589°W
Report Text: KPWT 200955Z AUTO 17003KT 8SM BKN005 BKN013 OVC024 14/13 A2973 RMK AO1 P0009
Loading
Personal Weather Stations






























Interactive Weather Map
Tropical Storm Tracking
New forecast layout! Learn more

10-Day Weather Forecast

Advertisements
Track Severe Weather on mobile